Terminal Aerodrome Forecast
Issued by NWS Lake Charles, LA

Home | Current Version | Previous Version | Text Only | Print | Product List | Glossary On
Versions: 1 2 3 4 5 6 7 8 9 10 11 12 13 14 15
000
FTUS44 KLCH 010500
TAFLCH
TAF
KLCH 010526Z 0106/0206 12012KT P6SM VCSH SCT060 BKN100
     FM011000 17006KT P6SM -RA FEW010 BKN025 OVC035
      TEMPO 0112/0116 4SM -RA BR OVC008
     FM011600 20012KT P6SM -RA SCT009 OVC023
     FM020000 29008KT P6SM -RA OVC015
     FM020300 35012KT P6SM OVC015=

USA.gov is the U.S. government's official web portal to all federal, state and local government web resources and services.